SHT12Z EGLL-EGNT
Flight info
| Callsign | SHT12Z |
|---|---|
| Flight time | 0h 46m |
| Altitude | 30000 |
| Route | UMLAT T418 WELIN T420 AKUPA UY250 RIMTO |
| Aircraft | A320/M-SDE3FGHIJ1RWXY/S |
Departure
| Time | 2026-05-04 16:10 |
|---|---|
| Airport | London Heathrow Airport (EGLL) |
Arrival
| Time | 2026-05-04 16:57 |
|---|---|
| Airport | Newcastle International Airport (EGNT) |
| Time | Latitude | Longitude | Altitude | Speed | Heading |
|---|---|---|---|---|---|
| 2026-05-04 15:07 | 51.46931 | -0.48647 | 90 ft | 0 kts | 360° |
| 2026-05-04 15:08 | 51.46931 | -0.48573 | 88 ft | 0 kts | 360° |
| 2026-05-04 15:41 | 51.46928 | -0.48573 | 86 ft | 3 kts | 360° |
| 2026-05-04 15:42 | 51.46903 | -0.48573 | 88 ft | 3 kts | 360° |
| 2026-05-04 15:42 | 51.46884 | -0.48574 | 86 ft | 4 kts | 44° |
| 2026-05-04 15:42 | 51.46877 | -0.48607 | 86 ft | 3 kts | 90° |
| 2026-05-04 15:42 | 51.46877 | -0.48636 | 88 ft | 0 kts | 90° |
| 2026-05-04 15:45 | 51.46877 | -0.48623 | 86 ft | 2 kts | 90° |
| 2026-05-04 15:45 | 51.46877 | -0.48583 | 86 ft | 5 kts | 90° |
| 2026-05-04 15:45 | 51.46879 | -0.48514 | 86 ft | 7 kts | 78° |
| 2026-05-04 15:46 | 51.46925 | -0.48468 | 86 ft | 9 kts | 3° |
| 2026-05-04 15:46 | 51.47001 | -0.48475 | 86 ft | 12 kts | 359° |
| 2026-05-04 15:46 | 51.47097 | -0.48476 | 86 ft | 15 kts | 0° |
| 2026-05-04 15:46 | 51.47211 | -0.48473 | 89 ft | 13 kts | 2° |
| 2026-05-04 15:47 | 51.47235 | -0.48473 | 86 ft | 10 kts | 359° |
| 2026-05-04 15:47 | 51.47269 | -0.48474 | 87 ft | 11 kts | 359° |
| 2026-05-04 15:47 | 51.47357 | -0.48474 | 86 ft | 14 kts | 360° |
| 2026-05-04 15:47 | 51.47466 | -0.48475 | 86 ft | 16 kts | 359° |
| 2026-05-04 15:48 | 51.47568 | -0.48452 | 86 ft | 10 kts | 53° |
| 2026-05-04 15:48 | 51.47559 | -0.48328 | 89 ft | 13 kts | 78° |
| 2026-05-04 15:48 | 51.46931 | -0.48647 | 89 ft | 3 kts | 360° |
| 2026-05-04 15:53 | 51.46920 | -0.48647 | 86 ft | 4 kts | 360° |
| 2026-05-04 15:53 | 51.46897 | -0.48647 | 89 ft | 3 kts | 0° |
| 2026-05-04 15:53 | 51.46879 | -0.48654 | 86 ft | 4 kts | 73° |
| 2026-05-04 15:54 | 51.46877 | -0.48693 | 86 ft | 3 kts | 90° |
| 2026-05-04 15:54 | 51.46877 | -0.48702 | 88 ft | 0 kts | 90° |
| 2026-05-04 15:58 | 51.46877 | -0.48691 | 86 ft | 2 kts | 90° |
| 2026-05-04 15:58 | 51.46877 | -0.48652 | 86 ft | 5 kts | 90° |
| 2026-05-04 15:59 | 51.46877 | -0.48584 | 87 ft | 7 kts | 90° |
| 2026-05-04 15:59 | 51.46883 | -0.48497 | 86 ft | 8 kts | 68° |
| 2026-05-04 15:59 | 51.46935 | -0.48468 | 89 ft | 10 kts | 356° |
| 2026-05-04 15:59 | 51.47012 | -0.48471 | 88 ft | 13 kts | 360° |
| 2026-05-04 16:00 | 51.47101 | -0.48471 | 87 ft | 13 kts | 359° |
| 2026-05-04 16:00 | 51.47202 | -0.48472 | 88 ft | 16 kts | 360° |
| 2026-05-04 16:00 | 51.47321 | -0.48473 | 88 ft | 18 kts | 360° |
| 2026-05-04 16:00 | 51.47397 | -0.48472 | 91 ft | 8 kts | 359° |
| 2026-05-04 16:01 | 51.47460 | -0.48474 | 88 ft | 11 kts | 359° |
| 2026-05-04 16:01 | 51.47536 | -0.48474 | 90 ft | 10 kts | 4° |
| 2026-05-04 16:01 | 51.47578 | -0.48381 | 89 ft | 13 kts | 89° |
| 2026-05-04 16:01 | 51.47578 | -0.48225 | 89 ft | 15 kts | 89° |
| 2026-05-04 16:02 | 51.47579 | -0.48045 | 90 ft | 16 kts | 90° |
| 2026-05-04 16:02 | 51.47579 | -0.47847 | 90 ft | 19 kts | 89° |
| 2026-05-04 16:02 | 51.47580 | -0.47777 | 91 ft | 20 kts | 90° |
| 2026-05-04 16:03 | 51.47581 | -0.47537 | 88 ft | 23 kts | 89° |
| 2026-05-04 16:03 | 51.47581 | -0.47274 | 89 ft | 24 kts | 90° |
| 2026-05-04 16:03 | 51.47582 | -0.47065 | 87 ft | 15 kts | 89° |
| 2026-05-04 16:03 | 51.47585 | -0.46877 | 91 ft | 18 kts | 85° |
| 2026-05-04 16:04 | 51.47592 | -0.46659 | 86 ft | 21 kts | 90° |
| 2026-05-04 16:04 | 51.47593 | -0.46190 | 88 ft | 20 kts | 90° |
| 2026-05-04 16:04 | 51.47594 | -0.45947 | 90 ft | 23 kts | 90° |
| 2026-05-04 16:05 | 51.47596 | -0.45677 | 91 ft | 24 kts | 89° |
| 2026-05-04 16:05 | 51.47596 | -0.45447 | 91 ft | 20 kts | 89° |
| 2026-05-04 16:05 | 51.47599 | -0.44951 | 88 ft | 25 kts | 89° |
| 2026-05-04 16:06 | 51.47600 | -0.44663 | 90 ft | 27 kts | 90° |
| 2026-05-04 16:06 | 51.47596 | -0.44312 | 89 ft | 3 kts | 94° |
| 2026-05-04 16:07 | 51.47592 | -0.44233 | 87 ft | 8 kts | 91° |
| 2026-05-04 16:07 | 51.47591 | -0.44062 | 86 ft | 13 kts | 90° |
| 2026-05-04 16:08 | 51.47594 | -0.43906 | 86 ft | 15 kts | 85° |
| 2026-05-04 16:08 | 51.47663 | -0.43780 | 89 ft | 8 kts | 334° |
| 2026-05-04 16:09 | 51.47768 | -0.43922 | 87 ft | 13 kts | 283° |
| 2026-05-04 16:09 | 51.47763 | -0.45778 | 84 ft | 142 kts | 270° |
| 2026-05-04 16:10 | 51.47730 | -0.49368 | 978 ft | 165 kts | 271° |
| 2026-05-04 16:11 | 51.47989 | -0.55458 | 2211 ft | 215 kts | 297° |
| 2026-05-04 16:11 | 51.48704 | -0.57703 | 2662 ft | 237 kts | 299° |
| 2026-05-04 16:12 | 51.51239 | -0.65213 | 5060 ft | 266 kts | 310° |
| 2026-05-04 16:12 | 51.56354 | -0.68246 | 7757 ft | 277 kts | 356° |
| 2026-05-04 16:13 | 51.60244 | -0.68662 | 9419 ft | 287 kts | 355° |
| 2026-05-04 16:13 | 51.64401 | -0.69114 | 10494 ft | 317 kts | 355° |
| 2026-05-04 16:14 | 51.68972 | -0.69616 | 11667 ft | 336 kts | 355° |
| 2026-05-04 16:14 | 51.73689 | -0.70141 | 13108 ft | 343 kts | 355° |
| 2026-05-04 16:15 | 51.80952 | -0.70957 | 15158 ft | 354 kts | 355° |
| 2026-05-04 16:16 | 51.85915 | -0.71519 | 16421 ft | 361 kts | 355° |
| 2026-05-04 16:16 | 51.93540 | -0.72382 | 18272 ft | 371 kts | 355° |
| 2026-05-04 16:17 | 51.98738 | -0.72971 | 19441 ft | 378 kts | 355° |
| 2026-05-04 16:18 | 52.06519 | -0.75687 | 21165 ft | 386 kts | 340° |
| 2026-05-04 16:18 | 52.09084 | -0.77034 | 21698 ft | 389 kts | 340° |
| 2026-05-04 16:19 | 52.16921 | -0.81138 | 23250 ft | 399 kts | 340° |
| 2026-05-04 16:19 | 52.22251 | -0.83928 | 24244 ft | 406 kts | 340° |
| 2026-05-04 16:20 | 52.28979 | -0.89423 | 25476 ft | 410 kts | 326° |
| 2026-05-04 16:20 | 52.33881 | -0.94330 | 26347 ft | 416 kts | 327° |
| 2026-05-04 16:21 | 52.41357 | -1.01790 | 27565 ft | 423 kts | 327° |
| 2026-05-04 16:22 | 52.46523 | -1.06543 | 28320 ft | 429 kts | 336° |
| 2026-05-04 16:22 | 52.55416 | -1.08624 | 29369 ft | 439 kts | 2° |
| 2026-05-04 16:23 | 52.64595 | -1.07904 | 30048 ft | 430 kts | 2° |
| 2026-05-04 16:24 | 52.76151 | -1.07811 | 30055 ft | 412 kts | 349° |
| 2026-05-04 16:25 | 52.81784 | -1.09538 | 30056 ft | 411 kts | 349° |
| 2026-05-04 16:26 | 53.01442 | -1.15525 | 30066 ft | 410 kts | 350° |
| 2026-05-04 16:28 | 53.15441 | -1.19825 | 30071 ft | 408 kts | 350° |
| 2026-05-04 16:29 | 53.34764 | -1.25811 | 29683 ft | 388 kts | 351° |
| 2026-05-04 16:30 | 53.42656 | -1.28119 | 29019 ft | 381 kts | 357° |
| 2026-05-04 16:31 | 53.47959 | -1.28748 | 29036 ft | 382 kts | 357° |
| 2026-05-04 16:31 | 53.55880 | -1.29774 | 28412 ft | 379 kts | 353° |
| 2026-05-04 16:32 | 53.63200 | -1.34630 | 27664 ft | 378 kts | 330° |
| 2026-05-04 16:33 | 53.67685 | -1.39182 | 27159 ft | 375 kts | 330° |
| 2026-05-04 16:33 | 53.72145 | -1.43693 | 26655 ft | 372 kts | 330° |
| 2026-05-04 16:34 | 53.76563 | -1.48179 | 26153 ft | 369 kts | 330° |
| 2026-05-04 16:34 | 53.78753 | -1.50416 | 25904 ft | 367 kts | 330° |
| 2026-05-04 16:35 | 53.85279 | -1.57082 | 25152 ft | 363 kts | 330° |
| 2026-05-04 16:35 | 53.91723 | -1.63708 | 25053 ft | 362 kts | 330° |
| 2026-05-04 16:36 | 53.93871 | -1.65917 | 25051 ft | 362 kts | 330° |
| 2026-05-04 16:36 | 53.98182 | -1.70356 | 25026 ft | 362 kts | 330° |
| 2026-05-04 16:37 | 54.02476 | -1.74804 | 24851 ft | 359 kts | 330° |
| 2026-05-04 16:37 | 54.04602 | -1.77008 | 24455 ft | 357 kts | 330° |
| 2026-05-04 16:37 | 54.08821 | -1.81381 | 23658 ft | 353 kts | 329° |
| 2026-05-04 16:38 | 54.13136 | -1.85148 | 22876 ft | 346 kts | 345° |
| 2026-05-04 16:39 | 54.20201 | -1.84808 | 21667 ft | 340 kts | 10° |
| 2026-05-04 16:39 | 54.24838 | -1.83347 | 20862 ft | 337 kts | 10° |
| 2026-05-04 16:40 | 54.29433 | -1.81903 | 20081 ft | 334 kts | 9° |
| 2026-05-04 16:40 | 54.33982 | -1.80470 | 19303 ft | 331 kts | 9° |
| 2026-05-04 16:41 | 54.38491 | -1.79047 | 18533 ft | 328 kts | 9° |
| 2026-05-04 16:41 | 54.45173 | -1.76949 | 17386 ft | 323 kts | 8° |
| 2026-05-04 16:42 | 54.51748 | -1.74867 | 16292 ft | 318 kts | 8° |
| 2026-05-04 16:43 | 54.56072 | -1.73489 | 15577 ft | 314 kts | 8° |
| 2026-05-04 16:43 | 54.60350 | -1.72124 | 14862 ft | 311 kts | 8° |
| 2026-05-04 16:43 | 54.62469 | -1.71444 | 14522 ft | 309 kts | 8° |
| 2026-05-04 16:44 | 54.70835 | -1.68699 | 13134 ft | 303 kts | 8° |
| 2026-05-04 16:45 | 54.74945 | -1.67332 | 12435 ft | 299 kts | 8° |
| 2026-05-04 16:46 | 54.81035 | -1.65275 | 11402 ft | 295 kts | 8° |
| 2026-05-04 16:46 | 54.85039 | -1.63877 | 10705 ft | 294 kts | 14° |
| 2026-05-04 16:47 | 54.88183 | -1.59552 | 10027 ft | 297 kts | 49° |
| 2026-05-04 16:47 | 54.90743 | -1.53869 | 9326 ft | 296 kts | 50° |
| 2026-05-04 16:48 | 54.94509 | -1.45468 | 8308 ft | 292 kts | 50° |
| 2026-05-04 16:48 | 54.95753 | -1.42691 | 7977 ft | 291 kts | 50° |
| 2026-05-04 16:49 | 54.98208 | -1.37203 | 7347 ft | 287 kts | 50° |
| 2026-05-04 16:49 | 55.00592 | -1.31878 | 7054 ft | 267 kts | 50° |
| 2026-05-04 16:50 | 55.02738 | -1.27238 | 6666 ft | 234 kts | 36° |
| 2026-05-04 16:50 | 55.05630 | -1.26218 | 5916 ft | 207 kts | 343° |
| 2026-05-04 16:51 | 55.08285 | -1.27411 | 5236 ft | 198 kts | 341° |
| 2026-05-04 16:51 | 55.09508 | -1.28393 | 4841 ft | 191 kts | 315° |
| 2026-05-04 16:51 | 55.10648 | -1.32418 | 3982 ft | 187 kts | 286° |
| 2026-05-04 16:52 | 55.11408 | -1.36734 | 3525 ft | 187 kts | 285° |
| 2026-05-04 16:52 | 55.11785 | -1.38931 | 3519 ft | 189 kts | 285° |
| 2026-05-04 16:53 | 55.12532 | -1.43344 | 3513 ft | 189 kts | 282° |
| 2026-05-04 16:53 | 55.10431 | -1.48591 | 2788 ft | 206 kts | 216° |
| 2026-05-04 16:54 | 55.09270 | -1.50082 | 2437 ft | 208 kts | 224° |
| 2026-05-04 16:55 | 55.06737 | -1.57843 | 1455 ft | 156 kts | 247° |
| 2026-05-04 16:55 | 55.05897 | -1.61017 | 1084 ft | 135 kts | 247° |
| 2026-05-04 16:56 | 55.05119 | -1.63965 | 731 ft | 133 kts | 247° |
| 2026-05-04 16:56 | 55.03969 | -1.68332 | 254 ft | 120 kts | 245° |
| 2026-05-04 16:57 | 55.03716 | -1.69282 | 259 ft | 44 kts | 245° |
| 2026-05-04 16:57 | 55.03634 | -1.69582 | 266 ft | 11 kts | 245° |
| 2026-05-04 16:58 | 55.03593 | -1.70165 | 263 ft | 18 kts | 275° |
| 2026-05-04 16:58 | 55.03599 | -1.70282 | 261 ft | 10 kts | 273° |
| 2026-05-04 16:59 | 55.03593 | -1.70566 | 264 ft | 13 kts | 266° |
| 2026-05-04 17:00 | 55.03616 | -1.70918 | 266 ft | 0 kts | 273° |